Maceo, Kentucky
Current Conditions -  °F | °C
As of 4:56 AM on Friday 31 Oct 2014 (Local Time) from KOWB Reporting Station
Light Rain Light Rain  
Wind Chill: 46°   Ceiling: 3500
Heat Index: 49°   Visibility: 10mi
Dew Point: 44°   Wind: 7mph
Humidity: 83%   Direction: 350°N
Pressure: 30.02"   Gusts: NA
Location:  37.86°N, 86.99°W
Report Text: KOWB 310956Z AUTO 35006KT 10SM -RA OVC035 09/07 A3002 RMK AO2 TSNO T00940066 P0000 SLP166
Loading
Personal Weather Stations






























Interactive Weather Map
Tropical Storm Tracking
New forecast layout! Learn more

10-Day Weather Forecast

Advertisements
Track Severe Weather on mobile